sensor_id;sensor_type;location;lat;lon;timestamp;temperature;humidity
12771;DHT22;6449;47.666;9.160;2023-01-10T00:02:56;3.50;99.90
12771;DHT22;6449;47.666;9.160;2023-01-10T00:07:51;3.60;99.90
12771;DHT22;6449;47.666;9.160;2023-01-10T00:12:44;3.60;99.90
12771;DHT22;6449;47.666;9.160;2023-01-10T00:17:55;3.60;99.90
12771;DHT22;6449;47.666;9.160;2023-01-10T00:22:50;3.60;99.90
12771;DHT22;6449;47.666;9.160;2023-01-10T00:27:44;3.60;99.90
12771;DHT22;6449;47.666;9.160;2023-01-10T00:52:49;3.30;99.90
12771;DHT22;6449;47.666;9.160;2023-01-10T00:57:42;3.30;99.90
12771;DHT22;6449;47.666;9.160;2023-01-10T01:02:35;3.30;99.90
12771;DHT22;6449;47.666;9.160;2023-01-10T02:41:22;3.60;99.90
12771;DHT22;6449;47.666;9.160;2023-01-10T03:52:08;3.60;99.90
12771;DHT22;6449;47.666;9.160;2023-01-10T04:02:39;3.60;99.90
12771;DHT22;6449;47.666;9.160;2023-01-10T05:06:37;3.50;99.90
12771;DHT22;6449;47.666;9.160;2023-01-10T05:11:32;3.50;99.90
12771;DHT22;6449;47.666;9.160;2023-01-10T05:36:16;3.50;99.90
12771;DHT22;6449;47.666;9.160;2023-01-10T11:33:27;4.90;99.90
12771;DHT22;6449;47.666;9.160;2023-01-10T11:38:23;4.80;99.90
12771;DHT22;6449;47.666;9.160;2023-01-10T11:43:26;4.90;99.90
12771;DHT22;6449;47.666;9.160;2023-01-10T11:48:24;4.90;99.90
12771;DHT22;6449;47.666;9.160;2023-01-10T11:53:40;5.20;99.90
12771;DHT22;6449;47.666;9.160;2023-01-10T11:58:36;5.30;99.90
12771;DHT22;6449;47.666;9.160;2023-01-10T12:03:33;5.30;99.90
12771;DHT22;6449;47.666;9.160;2023-01-10T12:08:32;5.40;99.90
12771;DHT22;6449;47.666;9.160;2023-01-10T12:13:29;5.50;99.90
12771;DHT22;6449;47.666;9.160;2023-01-10T12:18:35;5.50;99.90
12771;DHT22;6449;47.666;9.160;2023-01-10T12:23:29;5.50;99.90
12771;DHT22;6449;47.666;9.160;2023-01-10T12:28:28;5.70;99.90
12771;DHT22;6449;47.666;9.160;2023-01-10T12:33:27;6.00;99.90
12771;DHT22;6449;47.666;9.160;2023-01-10T12:38:31;6.00;99.90
12771;DHT22;6449;47.666;9.160;2023-01-10T12:43:46;5.90;99.90
12771;DHT22;6449;47.666;9.160;2023-01-10T12:49:00;5.90;99.90
12771;DHT22;6449;47.666;9.160;2023-01-10T12:54:04;5.80;99.90
12771;DHT22;6449;47.666;9.160;2023-01-10T12:59:10;5.80;99.90
12771;DHT22;6449;47.666;9.160;2023-01-10T13:11:00;5.80;99.90
12771;DHT22;6449;47.666;9.160;2023-01-10T13:16:01;5.80;99.90
12771;DHT22;6449;47.666;9.160;2023-01-10T13:21:09;5.90;99.90
12771;DHT22;6449;47.666;9.160;2023-01-10T13:26:08;6.00;99.90
12771;DHT22;6449;47.666;9.160;2023-01-10T13:31:04;5.90;99.90
12771;DHT22;6449;47.666;9.160;2023-01-10T13:36:08;5.70;99.90
12771;DHT22;6449;47.666;9.160;2023-01-10T13:41:07;5.60;99.90
12771;DHT22;6449;47.666;9.160;2023-01-10T13:46:46;5.60;99.90
12771;DHT22;6449;47.666;9.160;2023-01-10T13:52:27;5.50;99.90
12771;DHT22;6449;47.666;9.160;2023-01-10T13:57:48;5.40;99.90
12771;DHT22;6449;47.666;9.160;2023-01-10T14:02:45;5.30;99.90
12771;DHT22;6449;47.666;9.160;2023-01-10T14:07:43;5.20;99.90
12771;DHT22;6449;47.666;9.160;2023-01-10T14:12:47;5.10;99.90
12771;DHT22;6449;47.666;9.160;2023-01-10T14:17:54;5.10;99.90
12771;DHT22;6449;47.666;9.160;2023-01-10T14:23:05;5.20;99.90
12771;DHT22;6449;47.666;9.160;2023-01-10T14:28:20;5.30;99.90
12771;DHT22;6449;47.666;9.160;2023-01-10T14:33:19;5.30;99.90
12771;DHT22;6449;47.666;9.160;2023-01-10T15:10:23;4.90;99.90
12771;DHT22;6449;47.666;9.160;2023-01-10T15:34:55;4.70;99.90
12771;DHT22;6449;47.666;9.160;2023-01-10T18:32:59;2.90;99.90
12771;DHT22;6449;47.666;9.160;2023-01-10T18:37:52;2.90;99.90
